Time;durP1;ratioP1;P1;durP2;ratioP2;P2;SDS_P1;SDS_P2;PMS_P1;PMS_P2;Temp;Humidity;BMP_temperature;BMP_pressure;BME280_temperature;BME280_humidity;BME280_pressure;Samples;Min_cycle;Max_cycle;Signal;HPM_P1;HPM_P2
2022/05/16 00:00:43;;;;;;;4.35;2.70;;;18.80;64.60;;;15.39;83.44;95560.00;5092625;28;20028;-56
2022/05/16 00:03:12;;;;;;;3.70;2.75;;;18.80;64.70;;;15.36;83.23;95574.78;5074848;28;20110;-56
2022/05/16 00:05:38;;;;;;;3.20;2.45;;;18.80;64.90;;;15.35;83.77;95573.19;5088348;28;20020;-55
2022/05/16 00:08:05;;;;;;;8.10;2.83;;;18.80;64.90;;;15.36;83.33;95569.41;5086423;28;20020;-57
2022/05/16 00:10:31;;;;;;;6.00;2.85;;;18.80;64.90;;;15.36;83.97;95569.41;5092504;28;20024;-57
2022/05/16 00:13:03;;;;;;;4.72;2.85;;;18.80;65.10;;;15.35;84.01;95575.84;5091306;28;20609;-54
2022/05/16 00:15:29;;;;;;;7.10;2.78;;;18.80;65.40;;;15.32;84.00;95576.44;5074706;28;20058;-54
2022/05/16 00:17:58;;;;;;;6.07;2.45;;;18.80;65.10;;;15.34;84.18;95576.97;5092730;28;20058;-57
2022/05/16 00:20:24;;;;;;;5.75;2.90;;;18.80;65.20;;;15.32;83.70;95583.72;5091002;28;20398;-54
2022/05/16 00:22:52;;;;;;;4.72;2.80;;;18.70;65.20;;;15.29;83.78;95582.41;5057781;28;20020;-56
2022/05/16 00:25:18;;;;;;;4.32;2.28;;;18.80;65.30;;;15.27;83.02;95592.66;5092155;28;20506;-57
2022/05/16 00:27:46;;;;;;;3.10;2.15;;;18.80;65.20;;;15.28;83.03;95595.03;5092623;28;20549;-54
2022/05/16 00:30:15;;;;;;;3.42;2.80;;;18.80;65.30;;;15.29;83.48;95595.81;5074063;28;20035;-52
2022/05/16 00:32:48;;;;;;;5.18;2.70;;;18.80;65.30;;;15.25;83.70;95602.88;5092746;28;20439;-52
2022/05/16 00:35:21;;;;;;;3.58;2.88;;;18.70;65.50;;;15.18;84.21;95597.09;5091558;28;20436;-53
2022/05/16 00:37:47;;;;;;;5.20;3.08;;;18.70;65.50;;;15.18;84.03;95586.34;5092819;28;20039;-52
2022/05/16 00:40:18;;;;;;;3.60;3.10;;;18.70;65.30;;;15.18;83.50;95583.69;5092751;28;20020;-51
2022/05/16 00:42:46;;;;;;;5.18;3.08;;;18.70;65.50;;;15.19;83.38;95596.00;5074742;28;20035;-55
2022/05/16 00:45:17;;;;;;;6.78;3.40;;;18.70;65.60;;;15.18;84.21;95589.03;5092784;28;20036;-56
2022/05/16 00:47:43;;;;;;;3.50;2.92;;;18.70;65.80;;;15.18;84.28;95586.34;5074896;28;20039;-57
2022/05/16 00:50:11;;;;;;;5.05;3.72;;;18.70;65.70;;;15.14;84.07;95585.38;5092204;28;20024;-57
2022/05/16 00:52:44;;;;;;;5.03;3.63;;;18.60;65.80;;;15.15;84.46;95584.25;5073609;28;20032;-56
2022/05/16 00:55:18;;;;;;;5.20;2.85;;;18.60;66.10;;;15.15;84.08;95584.25;5075421;28;20031;-55
2022/05/16 00:57:50;;;;;;;6.20;3.90;;;18.60;66.00;;;15.14;83.99;95580.78;5093055;28;20032;-56
2022/05/16 01:00:39;;;;;;;5.32;3.60;;;18.60;65.90;;;15.13;84.30;95583.75;5075001;28;20027;-55
2022/05/16 01:06:38;;;;;;;;;;;18.60;66.20;;;15.11;84.50;95569.84;5058771;28;20043;-57
2022/05/16 01:09:16;;;;;;;7.32;4.03;;;18.60;65.10;;;15.11;84.52;95567.16;5074421;28;19915;-56
2022/05/16 01:11:42;;;;;;;4.90;3.53;;;18.60;65.60;;;15.08;84.19;95568.53;5092886;28;20093;-56
2022/05/16 01:15:10;;;;;;;5.15;3.75;;;18.60;65.50;;;15.07;84.90;95574.19;5074600;28;20507;-56
2022/05/16 01:17:36;;;;;;;5.63;3.92;;;18.60;66.20;;;15.06;85.12;95581.44;5013591;28;20137;-56
2022/05/16 01:20:11;;;;;;;7.30;3.65;;;18.50;65.70;;;15.01;85.65;95576.16;5013177;28;20431;-56
2022/05/16 01:22:41;;;;;;;6.63;3.53;;;18.50;66.50;;;15.01;85.63;95581.50;5065172;28;20050;-56
2022/05/16 01:25:28;;;;;;;4.50;3.40;;;18.50;66.40;;;15.00;85.38;95575.34;5074641;28;20400;-56
2022/05/16 01:27:59;;;;;;;4.03;3.30;;;18.50;66.90;;;14.99;85.43;95578.34;5075265;28;20111;-56
2022/05/16 01:30:39;;;;;;;4.97;3.67;;;18.50;66.70;;;14.96;85.98;95578.94;5087170;28;20386;-54
2022/05/16 01:33:17;;;;;;;6.80;3.70;;;18.40;67.00;;;14.97;85.67;95575.94;5069858;28;20036;-56
2022/05/16 01:35:46;;;;;;;6.03;3.50;;;18.50;67.20;;;14.93;85.94;95569.56;5074388;28;20047;-56
2022/05/16 01:38:26;;;;;;;5.63;3.72;;;18.40;66.90;;;14.93;86.30;95577.63;5074040;28;20038;-55
2022/05/16 01:41:06;;;;;;;6.60;3.85;;;18.40;67.10;;;14.92;86.14;95578.72;5091530;28;20035;-56
2022/05/16 01:43:40;;;;;;;6.93;4.10;;;18.40;67.30;;;14.88;86.22;95580.38;5057950;28;20115;-56
2022/05/16 01:46:08;;;;;;;9.27;4.13;;;18.40;67.40;;;14.87;86.16;95578.78;5074299;28;20020;-55
2022/05/16 01:48:34;;;;;;;6.72;3.72;;;18.40;67.40;;;14.88;85.84;95582.25;5057660;28;20021;-55
2022/05/16 01:51:04;;;;;;;4.75;3.83;;;18.40;67.40;;;14.89;85.69;95578.50;5048353;28;20068;-55
2022/05/16 01:53:31;;;;;;;7.60;3.55;;;18.40;67.60;;;14.88;85.76;95584.94;5091816;28;20574;-56
2022/05/16 01:55:57;;;;;;;8.18;5.65;;;18.40;67.70;;;14.89;85.89;95589.25;5074312;28;20039;-56
2022/05/16 01:58:28;;;;;;;7.35;5.40;;;18.40;67.80;;;14.89;85.44;95591.91;5091874;28;20066;-56
2022/05/16 02:00:55;;;;;;;11.00;5.00;;;18.40;68.00;;;14.89;85.54;95583.88;5091530;28;20035;-56
2022/05/16 02:03:21;;;;;;;9.60;5.78;;;18.40;67.80;;;14.90;85.90;95585.47;5091230;28;20028;-56
2022/05/16 02:05:48;;;;;;;8.30;4.30;;;18.40;67.80;;;14.89;85.67;95581.97;5093767;28;20024;-57
2022/05/16 02:08:15;;;;;;;5.28;3.50;;;18.40;67.80;;;14.88;85.80;95585.72;5094528;28;20421;-56
2022/05/16 02:10:46;;;;;;;9.23;4.13;;;18.40;67.80;;;14.83;85.74;95574.31;5095236;28;20028;-56
2022/05/16 02:13:15;;;;;;;8.27;4.30;;;18.40;68.00;;;14.82;85.91;95573.50;5095703;28;20089;-56
2022/05/16 02:15:44;;;;;;;9.70;4.90;;;18.30;68.00;;;14.80;85.84;95560.38;5095552;28;20440;-55
2022/05/16 02:18:11;;;;;;;7.10;4.00;;;18.30;68.00;;;14.76;85.73;95554.03;5095608;28;20058;-56
2022/05/16 02:20:37;;;;;;;6.60;4.05;;;18.30;68.00;;;14.74;86.08;95550.03;5094951;28;20490;-55
2022/05/16 02:25:57;;;;;;;8.52;4.00;;;18.30;68.30;;;14.64;85.74;95558.22;5091582;23;20528;-50
2022/05/16 02:28:24;;;;;;;4.95;3.97;;;18.20;68.10;;;14.64;85.96;95563.59;5075953;28;20048;-48
2022/05/16 02:30:53;;;;;;;5.72;4.22;;;18.20;68.20;;;14.70;85.68;95565.13;5076189;28;20107;-49
2022/05/16 02:33:31;;;;;;;5.32;3.63;;;18.20;68.20;;;14.68;85.65;95564.59;5095481;28;20024;-51
2022/05/16 02:36:05;;;;;;;5.85;3.33;;;18.20;68.40;;;14.69;85.40;95568.88;5087727;28;20481;-52
2022/05/16 02:38:34;;;;;;;5.63;3.40;;;18.20;68.30;;;14.65;85.52;95565.19;5057669;28;20032;-48
2022/05/16 02:41:06;;;;;;;4.85;3.42;;;18.20;68.10;;;14.56;85.97;95571.19;5057172;28;20024;-49
2022/05/16 02:43:35;;;;;;;8.45;4.10;;;18.20;68.20;;;14.58;85.96;95574.38;5056707;28;20390;-49
2022/05/16 02:46:01;;;;;;;6.28;3.67;;;18.10;68.40;;;14.57;86.07;95577.34;5073559;28;20090;-49
2022/05/16 02:48:35;;;;;;;10.07;3.80;;;18.10;68.50;;;14.61;85.88;95588.31;5057077;28;20020;-48
2022/05/16 02:51:00;;;;;;;7.57;3.67;;;18.10;68.60;;;14.56;86.32;95581.13;5044712;28;20024;-48
2022/05/16 02:53:26;;;;;;;7.38;3.53;;;18.10;68.50;;;14.59;86.48;95585.91;5056763;28;20021;-47
2022/05/16 02:55:52;;;;;;;7.22;4.00;;;18.10;68.60;;;14.59;86.54;95585.91;5056721;28;20025;-49
2022/05/16 02:58:18;;;;;;;7.57;4.22;;;18.10;68.60;;;14.54;86.62;95578.72;5056604;28;20490;-49
2022/05/16 03:00:43;;;;;;;5.05;4.00;;;18.10;68.70;;;14.55;86.72;95587.56;5056559;28;20039;-49
2022/05/16 03:03:15;;;;;;;9.00;4.85;;;18.10;68.90;;;14.54;86.95;95586.78;5074480;28;20095;-48
2022/05/16 03:05:41;;;;;;;5.53;4.07;;;18.10;69.20;;;14.53;87.05;95587.06;5074392;28;20025;-49
2022/05/16 03:08:10;;;;;;;5.85;4.10;;;18.00;69.10;;;14.55;86.92;95591.03;5056357;28;20568;-49
2022/05/16 03:10:38;;;;;;;5.18;4.18;;;18.00;69.20;;;14.49;86.93;95589.47;5074396;28;20031;-48
2022/05/16 03:13:24;;;;;;;5.63;4.28;;;18.00;69.20;;;14.51;86.67;95599.97;5073068;28;20025;-50
2022/05/16 03:15:50;;;;;;;6.90;4.07;;;18.00;69.40;;;14.50;86.67;95599.09;5073818;28;20394;-47
2022/05/16 03:18:17;;;;;;;7.47;4.32;;;17.90;69.00;;;14.47;86.45;95601.56;5056355;28;20103;-49
2022/05/16 03:20:46;;;;;;;5.03;4.00;;;18.00;69.10;;;14.45;86.54;95609.13;5056390;28;20031;-49
2022/05/16 03:23:14;;;;;;;5.97;4.15;;;17.90;69.20;;;14.34;86.43;95603.88;5074014;28;20048;-50
2022/05/16 03:25:40;;;;;;;5.32;4.30;;;17.90;69.20;;;14.35;86.68;95610.84;5052614;28;20048;-47
2022/05/16 03:28:12;;;;;;;6.55;4.60;;;17.80;69.20;;;14.29;86.45;95611.16;5053957;28;20502;-48
2022/05/16 03:30:38;;;;;;;8.57;4.40;;;17.80;69.20;;;14.22;86.73;95608.84;5052722;28;20434;-49
2022/05/16 03:33:05;;;;;;;7.93;4.32;;;17.70;69.20;;;14.20;86.56;95612.91;5052405;28;20112;-48
2022/05/16 03:35:32;;;;;;;6.72;4.68;;;17.70;69.20;;;14.13;87.37;95613.25;5059671;28;20025;-51
2022/05/16 03:38:03;;;;;;;6.63;5.07;;;17.60;69.50;;;14.11;87.29;95608.19;5065446;28;20033;-50
2022/05/16 03:40:42;;;;;;;7.07;4.85;;;17.60;69.70;;;14.05;87.55;95612.00;5053922;28;20411;-47
2022/05/16 03:43:16;;;;;;;6.25;5.18;;;17.60;69.70;;;14.09;87.57;95623.72;5057880;28;20441;-48
2022/05/16 03:45:45;;;;;;;7.10;4.80;;;17.60;70.00;;;14.03;87.55;95611.47;5055726;28;20039;-49
2022/05/16 03:48:14;;;;;;;6.82;4.60;;;17.60;69.90;;;14.05;87.77;95619.25;5053641;28;20041;-48
2022/05/16 03:50:40;;;;;;;5.78;4.82;;;17.60;70.00;;;14.05;87.58;95627.28;5053548;28;20032;-52
2022/05/16 03:53:06;;;;;;;7.43;4.88;;;17.50;70.00;;;14.03;87.50;95621.41;5053963;28;20070;-49
2022/05/16 03:55:38;;;;;;;8.05;4.85;;;17.50;70.00;;;13.97;87.76;95609.94;5055248;28;20482;-47
2022/05/16 03:58:04;;;;;;;9.63;5.22;;;17.50;70.20;;;13.98;87.51;95621.47;5054009;28;20069;-48
2022/05/16 04:00:30;;;;;;;10.27;5.10;;;17.50;70.00;;;13.94;87.53;95613.19;5054231;28;20025;-47
2022/05/16 04:02:58;;;;;;;7.95;4.68;;;17.50;70.10;;;13.94;87.87;95623.91;5052568;28;20040;-48
2022/05/16 04:05:34;;;;;;;8.85;5.25;;;17.50;70.20;;;13.89;87.60;95632.00;5068590;28;20483;-51
2022/05/16 04:08:07;;;;;;;7.20;5.40;;;17.50;70.40;;;13.87;88.29;95626.13;5052673;28;20381;-47
2022/05/16 04:10:42;;;;;;;7.72;4.88;;;17.40;70.40;;;13.88;87.76;95633.88;5056571;28;20029;-51
2022/05/16 04:13:11;;;;;;;12.90;4.72;;;17.50;70.70;;;13.87;87.72;95639.50;5055784;28;20028;-47
2022/05/16 04:15:48;;;;;;;10.90;5.57;;;17.50;70.50;;;13.82;88.05;95635.03;5060616;28;20032;-47
2022/05/16 04:18:14;;;;;;;6.35;5.15;;;17.50;70.60;;;13.84;88.32;95634.72;5039325;28;20029;-49
2022/05/16 04:20:49;;;;;;;7.88;5.25;;;17.50;70.40;;;13.82;88.15;95637.69;5032556;28;20059;-48
2022/05/16 04:23:15;;;;;;;11.40;5.25;;;17.50;70.60;;;13.81;88.17;95629.94;5063681;28;20395;-48
2022/05/16 04:25:44;;;;;;;7.03;5.55;;;17.40;71.00;;;13.81;88.02;95641.44;5047648;28;20041;-48
2022/05/16 04:28:13;;;;;;;8.48;5.35;;;17.50;70.50;;;13.79;87.70;95635.59;5052268;28;20021;-48
2022/05/16 04:30:39;;;;;;;11.10;6.50;;;17.50;70.40;;;13.77;88.54;95640.41;5068286;28;20498;-49
2022/05/16 04:33:07;;;;;;;9.10;6.68;;;17.40;70.60;;;13.81;88.35;95646.78;5051664;28;20090;-48
2022/05/16 04:35:33;;;;;;;13.18;7.00;;;17.40;71.50;;;13.80;89.69;95645.19;5052841;28;20079;-50
2022/05/16 04:37:59;;;;;;;9.95;6.40;;;17.50;71.30;;;13.83;89.06;95644.63;5051513;28;20036;-50
2022/05/16 04:40:25;;;;;;;8.65;5.65;;;17.50;71.20;;;13.88;88.78;95647.28;5034965;28;20025;-49
2022/05/16 04:42:54;;;;;;;10.10;5.05;;;17.60;71.20;;;13.94;88.75;95648.00;5052673;28;20029;-48
2022/05/16 04:45:30;;;;;;;6.90;5.20;;;17.60;71.00;;;14.11;89.12;95644.88;5051154;28;20029;-48
2022/05/16 04:48:01;;;;;;;9.80;5.55;;;17.80;71.00;;;14.17;88.62;95649.09;5034985;28;20561;-49
2022/05/16 04:50:32;;;;;;;10.60;5.40;;;17.90;70.70;;;14.21;88.36;95646.66;5051374;28;20382;-50
2022/05/16 04:53:00;;;;;;;13.02;6.68;;;18.00;70.60;;;14.38;88.58;95654.22;5054968;28;20024;-47
2022/05/16 04:55:30;;;;;;;9.48;5.45;;;18.10;70.50;;;14.52;88.66;95663.19;5051160;28;20116;-47
2022/05/16 04:58:05;;;;;;;10.93;5.53;;;18.30;70.60;;;14.63;88.25;95669.22;5034620;28;20395;-51
2022/05/16 05:00:31;;;;;;;6.03;4.88;;;18.40;70.50;;;14.66;88.01;95666.75;5051444;28;20028;-49
2022/05/16 05:02:57;;;;;;;5.45;4.50;;;18.50;70.20;;;14.71;87.73;95672.06;5051367;28;20036;-50
2022/05/16 05:05:26;;;;;;;5.95;4.15;;;18.60;70.10;;;14.78;87.59;95674.38;5052168;28;20041;-48
2022/05/16 05:07:51;;;;;;;7.38;4.68;;;18.70;70.00;;;14.84;87.47;95672.44;5018455;28;20041;-48
2022/05/16 05:16:02;;;;;;;12.13;4.70;;;19.00;69.60;;;15.06;87.13;95698.69;5052261;28;20454;-50
2022/05/16 05:18:34;;;;;;;7.80;4.20;;;19.00;69.50;;;15.15;86.68;95705.78;5051083;28;20538;-48
2022/05/16 05:21:00;;;;;;;6.07;4.13;;;19.10;69.40;;;15.18;86.25;95699.84;5052188;28;20555;-52
2022/05/16 05:23:26;;;;;;;5.20;4.03;;;19.10;69.10;;;15.27;85.78;95710.72;5051453;28;20370;-47
2022/05/16 05:25:52;;;;;;;5.35;4.20;;;19.30;69.10;;;15.36;85.80;95713.56;5066652;28;20072;-50
2022/05/16 05:28:18;;;;;;;7.38;4.47;;;19.30;68.90;;;15.43;85.49;95713.97;5072174;28;20028;-48
2022/05/16 05:30:44;;;;;;;6.38;4.30;;;19.40;69.50;;;15.50;85.32;95725.91;5072112;28;20108;-47
2022/05/16 05:33:10;;;;;;;5.78;4.03;;;19.50;68.50;;;15.57;84.97;95719.38;5037586;28;20056;-50
2022/05/16 05:35:39;;;;;;;5.57;3.90;;;19.60;68.40;;;15.63;84.74;95724.38;5054288;28;20090;-49
2022/05/16 05:38:05;;;;;;;5.63;4.28;;;19.60;68.10;;;15.64;84.54;95725.19;5036962;28;20044;-50
2022/05/16 05:40:30;;;;;;;5.57;4.18;;;19.70;68.00;;;15.68;84.13;95735.09;5058229;28;20525;-51
2022/05/16 05:43:01;;;;;;;5.90;4.50;;;19.70;67.80;;;15.69;84.13;95741.25;5075938;28;20039;-47
2022/05/16 05:45:26;;;;;;;6.22;4.20;;;19.70;67.70;;;15.71;84.35;95736.38;5042088;28;20533;-50
2022/05/16 05:47:52;;;;;;;8.25;4.80;;;19.80;67.70;;;15.75;84.25;95745.44;5058086;28;20033;-48
2022/05/16 05:50:18;;;;;;;6.65;4.32;;;19.80;67.60;;;15.78;83.79;95744.06;5075988;28;20017;-49
2022/05/16 05:52:44;;;;;;;11.15;5.05;;;19.80;67.50;;;15.92;83.34;95743.03;5075781;28;20029;-51
2022/05/16 05:55:10;;;;;;;7.95;4.55;;;20.00;67.40;;;16.23;82.37;95752.44;5049224;28;20063;-53
2022/05/16 05:57:36;;;;;;;6.47;4.45;;;20.20;67.10;;;16.70;78.63;95758.56;5006276;28;20037;-52
2022/05/16 06:00:05;;;;;;;7.10;3.83;;;20.60;66.60;;;17.13;77.23;95756.34;5057713;28;20029;-51
2022/05/16 06:02:31;;;;;;;5.40;4.07;;;21.00;65.90;;;17.43;78.33;95760.28;5055825;28;20090;-50
2022/05/16 06:05:00;;;;;;;6.13;3.85;;;21.20;65.50;;;17.67;76.04;95764.59;5055486;28;20037;-52
2022/05/16 06:07:28;;;;;;;12.02;4.20;;;21.50;65.00;;;17.86;75.24;95773.31;5055394;28;20056;-50
2022/05/16 06:09:54;;;;;;;5.18;4.03;;;21.70;64.30;;;17.99;75.76;95783.25;5055499;28;20082;-48
2022/05/16 06:12:20;;;;;;;7.03;4.00;;;22.00;63.90;;;18.33;74.66;95784.56;5037851;28;20111;-52
2022/05/16 06:14:46;;;;;;;6.32;3.40;;;22.40;63.20;;;18.68;70.55;95782.84;5037696;28;20498;-50
2022/05/16 06:17:14;;;;;;;4.85;3.15;;;22.80;62.00;;;19.04;68.85;95786.50;5055078;28;20112;-50
2022/05/16 06:19:40;;;;;;;5.60;3.55;;;23.20;60.90;;;19.45;69.47;95778.00;5055291;28;20448;-49
2022/05/16 06:22:06;;;;;;;4.97;3.17;;;23.60;60.10;;;19.85;66.87;95788.69;5055114;28;20064;-48
2022/05/16 06:27:29;;;;;;;4.60;2.80;;;24.50;58.00;;;20.61;61.75;95798.16;5054738;28;20124;-52
2022/05/16 06:29:56;;;;;;;4.47;2.33;;;25.00;56.80;;;21.01;57.60;95795.91;5055216;28;20450;-50
2022/05/16 06:32:22;;;;;;;3.67;2.58;;;25.50;55.40;;;21.25;57.93;95787.19;5071743;28;20241;-49
2022/05/16 06:34:55;;;;;;;4.10;2.65;;;25.90;54.00;;;21.58;56.21;95797.38;5074911;28;20060;-49
2022/05/16 06:37:26;;;;;;;5.05;2.20;;;26.40;52.60;;;21.91;54.71;95789.31;5074882;28;20070;-48
2022/05/16 06:39:58;;;;;;;6.72;2.30;;;26.80;51.60;;;22.44;54.81;95795.06;5057421;28;20036;-50
2022/05/16 06:42:27;;;;;;;3.15;2.85;;;27.20;51.00;;;22.74;52.50;95792.97;5055282;28;20556;-55
2022/05/16 06:44:53;;;;;;;4.03;2.80;;;27.60;50.00;;;22.78;54.77;95797.41;5053591;28;20435;-54
2022/05/16 06:47:27;;;;;;;6.75;2.67;;;27.80;49.20;;;22.59;53.66;95803.38;5036356;28;20032;-50
2022/05/16 06:50:05;;;;;;;3.40;2.78;;;27.80;47.80;;;22.60;54.45;95812.31;5054066;28;20059;-52
2022/05/16 06:52:38;;;;;;;6.40;3.55;;;27.70;47.80;;;22.37;53.93;95820.03;5036903;28;20498;-51
2022/05/16 06:55:04;;;;;;;4.10;2.90;;;27.70;47.30;;;22.14;55.58;95825.00;5071698;28;20427;-52
2022/05/16 06:57:30;;;;;;;5.20;2.70;;;27.50;47.20;;;21.94;55.13;95829.31;5073267;28;20075;-52
2022/05/16 06:59:56;;;;;;;7.20;3.08;;;27.40;46.80;;;22.25;55.10;95834.38;5068461;28;20495;-54
2022/05/16 07:02:22;;;;;;;4.07;2.80;;;27.60;46.80;;;22.46;54.65;95833.53;5054613;28;20082;-55
2022/05/16 07:04:48;;;;;;;7.57;3.63;;;27.70;46.70;;;22.49;53.89;95827.41;5054298;28;20112;-54
2022/05/16 07:07:14;;;;;;;3.67;3.30;;;27.70;46.40;;;22.51;54.35;95844.19;5054406;28;20391;-54
2022/05/16 07:09:48;;;;;;;3.72;3.20;;;27.70;46.30;;;22.84;54.68;95844.13;5054897;28;20028;-54
2022/05/16 07:12:15;;;;;;;5.85;2.80;;;27.90;46.40;;;22.84;54.99;95841.41;5074201;28;20025;-55
2022/05/16 07:14:41;;;;;;;5.88;2.63;;;28.20;46.00;;;23.02;52.67;95850.19;5056498;28;20059;-57
2022/05/16 07:17:19;;;;;;;3.08;2.78;;;28.50;45.40;;;23.50;51.84;95852.16;5056317;28;20035;-55
2022/05/16 07:19:46;;;;;;;3.17;2.60;;;28.90;45.00;;;23.84;50.98;95854.72;5054499;28;20501;-50
2022/05/16 07:22:22;;;;;;;4.47;3.20;;;29.30;44.40;;;23.97;49.90;95854.38;5050626;28;20124;-51
2022/05/16 07:24:50;;;;;;;2.80;2.58;;;29.70;43.50;;;23.97;48.06;95851.66;5074132;28;20024;-54
2022/05/16 07:30:13;;;;;;;3.95;2.47;;;29.90;42.20;;;24.01;48.04;95868.06;5059268;28;20073;-53
2022/05/16 07:32:46;;;;;;;2.25;2.00;;;29.80;41.90;;;24.06;48.36;95856.94;5073870;28;20047;-54
2022/05/16 07:35:17;;;;;;;4.82;2.67;;;29.70;41.60;;;24.12;47.70;95863.72;5073660;28;20017;-55
2022/05/16 07:37:44;;;;;;;2.53;2.33;;;29.70;41.50;;;24.12;48.02;95861.00;5056368;28;20044;-52
2022/05/16 07:40:14;;;;;;;3.00;2.47;;;29.60;41.30;;;24.17;47.40;95857.25;5039263;28;20576;-52
2022/05/16 07:42:40;;;;;;;4.90;2.58;;;29.60;41.00;;;24.01;47.07;95857.97;5073881;28;20101;-53
2022/05/16 07:45:08;;;;;;;2.47;2.28;;;29.50;40.80;;;24.01;47.52;95857.19;5055639;28;20032;-55
2022/05/16 07:47:34;;;;;;;2.83;2.30;;;29.30;40.70;;;23.96;48.25;95860.13;5055775;28;20024;-55
2022/05/16 07:50:09;;;;;;;2.35;2.13;;;29.20;41.00;;;23.82;49.07;95867.84;5055539;28;20085;-55
2022/05/16 07:52:37;;;;;;;4.68;2.80;;;29.00;41.10;;;23.19;48.41;95865.47;5055908;28;20028;-52
2022/05/16 07:55:05;;;;;;;4.85;2.45;;;28.80;40.60;;;22.95;49.59;95858.13;5038895;28;20043;-52
2022/05/16 07:57:30;;;;;;;4.20;2.40;;;28.50;40.60;;;23.08;49.43;95851.56;5073385;28;20154;-55
2022/05/16 07:59:57;;;;;;;5.18;3.05;;;28.40;40.90;;;22.80;49.51;95857.59;5052497;28;20471;-54
2022/05/16 08:02:23;;;;;;;4.25;2.70;;;28.60;40.20;;;23.41;49.38;95850.66;5053238;28;20112;-55
2022/05/16 08:04:54;;;;;;;5.10;2.83;;;28.90;40.30;;;23.99;47.94;95851.28;5053230;28;20108;-53
2022/05/16 08:07:23;;;;;;;4.07;3.00;;;29.20;40.10;;;24.15;46.33;95859.53;5052042;28;20025;-53
2022/05/16 08:12:38;;;;;;;5.35;3.20;;;30.00;38.50;;;24.58;44.81;95861.53;5052990;28;20067;-50
2022/05/16 08:15:05;;;;;;;7.75;3.53;;;30.40;37.70;;;24.84;43.98;95863.78;5053045;28;20025;-55
2022/05/16 08:17:40;;;;;;;3.30;3.00;;;30.70;37.20;;;25.32;44.01;95851.00;5053344;28;20037;-52
2022/05/16 08:20:10;;;;;;;4.50;3.28;;;31.10;36.90;;;25.98;42.41;95864.97;5053276;28;20024;-53
2022/05/16 08:22:42;;;;;;;5.47;3.40;;;31.50;36.80;;;26.52;41.10;95864.19;5035340;28;20036;-55
2022/05/16 08:25:09;;;;;;;8.02;3.70;;;32.00;36.30;;;26.56;42.63;95864.25;5018776;28;20029;-55
2022/05/16 08:27:37;;;;;;;7.88;3.50;;;32.20;36.10;;;25.80;40.56;95862.63;5094286;23;20052;-56
2022/05/16 08:30:07;;;;;;;5.35;3.65;;;32.20;34.80;;;25.45;41.72;95862.59;5074006;28;20386;-48
2022/05/16 08:32:39;;;;;;;5.25;3.47;;;32.00;34.10;;;25.33;42.16;95865.44;5074710;28;20035;-51
2022/05/16 08:35:09;;;;;;;3.92;3.38;;;32.10;33.60;;;25.15;43.05;95875.88;5058115;28;20386;-52
2022/05/16 08:40:53;;;;;;;7.22;3.38;;;31.80;33.30;;;24.73;43.65;95876.34;5072664;28;20067;-50
2022/05/16 08:43:51;;;;;;;6.35;3.53;;;31.50;33.50;;;24.59;44.05;95879.44;5054964;28;20047;-48
2022/05/16 08:47:09;;;;;;;5.47;3.67;;;31.20;33.60;;;24.46;43.93;95886.09;5072557;28;20040;-48
2022/05/16 08:49:52;;;;;;;7.57;4.05;;;31.20;33.80;;;24.95;43.68;95880.41;4992483;28;20036;-50
2022/05/16 08:52:41;;;;;;;9.02;4.82;;;31.30;34.00;;;25.47;42.58;95892.22;5053406;28;20431;-51
2022/05/16 08:55:40;;;;;;;4.50;3.35;;;31.80;33.80;;;25.59;42.56;95883.97;5072563;28;20032;-52
2022/05/16 08:58:35;;;;;;;6.35;3.50;;;31.80;33.80;;;25.72;41.65;95879.19;5072238;28;20697;-49
2022/05/16 09:01:20;;;;;;;5.70;3.65;;;31.70;33.80;;;25.72;41.13;95881.91;5050710;28;20511;-48
2022/05/16 09:04:23;;;;;;;8.30;3.95;;;31.70;33.40;;;26.00;40.66;95882.56;5050801;28;20032;-51
2022/05/16 09:07:16;;;;;;;5.00;3.80;;;31.90;33.50;;;26.29;40.80;95888.63;5014703;28;20064;-50
2022/05/16 09:10:12;;;;;;;5.13;4.03;;;32.10;33.40;;;26.59;39.77;95883.44;5056590;28;20041;-52
2022/05/16 09:12:48;;;;;;;5.35;3.92;;;32.40;33.10;;;26.96;40.30;95870.06;5054573;28;20483;-54
2022/05/16 09:15:52;;;;;;;4.90;4.00;;;32.80;32.80;;;27.40;39.60;95883.34;5054960;28;20504;-54
2022/05/16 09:19:08;;;;;;;8.15;4.15;;;33.30;32.50;;;27.95;38.23;95884.97;5045077;28;20428;-53
2022/05/16 09:22:01;;;;;;;7.78;4.20;;;33.70;32.20;;;28.00;38.44;95885.47;4987118;28;20032;-53
2022/05/16 09:24:36;;;;;;;7.30;4.85;;;34.20;31.70;;;28.22;38.07;95880.28;5072046;28;20115;-51
2022/05/16 09:30:25;;;;;;;7.75;5.20;;;34.80;30.80;;;28.51;37.16;95871.25;5039402;28;20162;-53
2022/05/16 09:33:01;;;;;;;10.93;9.00;;;35.00;30.20;;;28.00;37.93;95870.97;5072320;28;20037;-53
2022/05/16 09:35:53;;;;;;;8.05;5.70;;;35.20;29.60;;;28.71;36.39;95869.16;5072177;28;20054;-56
2022/05/16 09:38:24;;;;;;;11.02;6.03;;;35.30;29.60;;;29.03;36.82;95874.22;5072091;28;20115;-53
2022/05/16 09:42:03;;;;;;;6.80;4.78;;;35.40;29.60;;;28.95;36.49;95875.25;5072143;28;20036;-54
2022/05/16 09:45:14;;;;;;;10.43;4.28;;;35.70;29.40;;;28.30;36.32;95871.00;4990395;28;20038;-54
2022/05/16 09:47:48;;;;;;;8.25;4.22;;;35.80;28.40;;;28.90;36.98;95881.09;5072298;28;20367;-50
2022/05/16 09:50:24;;;;;;;9.00;4.28;;;35.90;28.50;;;29.38;35.06;95878.44;5071791;28;20044;-48
2022/05/16 09:53:02;;;;;;;6.05;4.13;;;36.00;28.50;;;29.62;34.55;95875.13;5069090;28;20043;-49
2022/05/16 09:55:54;;;;;;;8.27;3.90;;;36.20;28.40;;;29.68;34.18;95881.84;5070839;28;20028;-52
2022/05/16 09:58:33;;;;;;;6.82;4.47;;;36.50;28.30;;;30.08;33.91;95876.59;5046343;28;20021;-50
2022/05/16 10:01:07;;;;;;;5.60;4.70;;;36.70;28.00;;;30.14;33.69;95875.06;5045617;28;20055;-53
2022/05/16 10:03:42;;;;;;;8.18;4.90;;;37.10;27.90;;;30.12;34.34;95880.16;5033024;28;20052;-51
2022/05/16 10:06:28;;;;;;;6.03;4.10;;;37.20;27.60;;;29.74;34.95;95879.50;5050811;28;20036;-54
2022/05/16 10:08:53;;;;;;;9.43;4.00;;;36.80;27.70;;;29.98;34.21;95883.59;5039209;28;20028;-49
2022/05/16 10:11:28;;;;;;;7.97;4.03;;;36.80;27.60;;;29.71;34.85;95881.09;5058019;28;20040;-48
2022/05/16 10:13:55;;;;;;;6.03;3.95;;;36.60;27.80;;;29.21;35.59;95857.94;5011970;28;20576;-55
2022/05/16 10:16:30;;;;;;;5.05;3.85;;;36.60;27.60;;;28.91;36.34;95874.44;5032927;28;20502;-51
2022/05/16 10:19:15;;;;;;;6.07;4.07;;;36.20;27.60;;;29.18;36.73;95872.41;5049712;28;20025;-48
2022/05/16 10:22:13;;;;;;;7.25;4.60;;;36.10;27.90;;;29.25;36.14;95867.75;5033531;28;20457;-48
2022/05/16 10:24:55;;;;;;;6.65;4.00;;;36.30;27.80;;;29.46;33.95;95863.63;5049795;28;20022;-51
2022/05/16 10:27:34;;;;;;;13.02;4.18;;;36.50;27.50;;;29.80;34.18;95863.47;5046839;28;20053;-52
2022/05/16 10:30:22;;;;;;;6.85;4.00;;;36.70;27.30;;;29.42;34.49;95855.34;5037011;28;20048;-53
2022/05/16 10:36:08;;;;;;;5.03;4.00;;;36.50;27.30;;;30.00;32.23;95859.31;5054181;28;20399;-50
2022/05/16 10:38:58;;;;;;;5.88;4.10;;;36.80;26.90;;;30.40;32.76;95857.56;5020435;28;20476;-52
2022/05/16 10:41:45;;;;;;;7.57;4.38;;;37.20;26.80;;;30.62;32.77;95855.69;5038396;28;20454;-54
2022/05/16 10:44:36;;;;;;;8.52;4.38;;;37.50;26.70;;;30.62;34.11;95855.69;5036351;28;20048;-52
2022/05/16 10:47:31;;;;;;;7.35;4.57;;;37.70;26.80;;;30.91;33.12;95859.31;5036718;28;20379;-51
2022/05/16 10:50:30;;;;;;;4.72;4.10;;;37.90;26.90;;;31.11;32.87;95860.50;5037623;28;20029;-51
2022/05/16 10:53:13;;;;;;;5.97;4.07;;;38.00;26.90;;;30.65;34.09;95858.44;5053249;28;20059;-50
2022/05/16 10:56:15;;;;;;;7.38;3.80;;;37.70;26.90;;;30.10;33.52;95868.78;5046438;28;20025;-53
2022/05/16 10:59:07;;;;;;;5.28;3.60;;;37.40;26.80;;;30.14;34.43;95853.88;5054017;28;20155;-53
2022/05/16 11:01:42;;;;;;;8.07;3.53;;;37.40;26.70;;;29.89;34.86;95856.47;5023856;28;20039;-51
2022/05/16 11:04:48;;;;;;;9.00;3.72;;;37.30;26.70;;;30.18;33.74;95857.44;5019517;28;20128;-56
2022/05/16 11:07:28;;;;;;;6.97;3.60;;;37.50;26.60;;;30.51;33.30;95863.09;5053581;28;20033;-58
2022/05/16 11:10:45;;;;;;;8.13;3.78;;;37.70;26.50;;;30.74;31.68;95868.25;5053540;28;20029;-53
2022/05/16 11:13:50;;;;;;;8.38;3.75;;;38.00;26.20;;;31.18;31.81;95867.19;5010198;28;20044;-51